createdAt,value
2023-12-09T00:01:24.335Z,10.87
2023-12-09T00:03:53.274Z,10.42
2023-12-09T00:06:28.619Z,10.50
2023-12-09T00:08:56.974Z,10.76
2023-12-09T00:11:25.147Z,10.89
2023-12-09T00:13:54.958Z,10.40
2023-12-09T00:16:23.529Z,10.86
2023-12-09T00:19:01.866Z,11.20
2023-12-09T00:21:30.340Z,11.14
2023-12-09T00:24:00.555Z,10.97
2023-12-09T00:26:39.127Z,10.78
2023-12-09T00:29:12.889Z,10.72
2023-12-09T00:31:41.107Z,11.01
2023-12-09T00:34:09.311Z,11.02
2023-12-09T00:36:40.163Z,11.33
2023-12-09T00:39:08.590Z,11.14
2023-12-09T00:41:37.727Z,11.06
2023-12-09T00:44:06.420Z,10.52
2023-12-09T00:46:36.073Z,10.96
2023-12-09T00:49:04.372Z,10.98
2023-12-09T00:51:32.798Z,10.98
2023-12-09T00:54:01.642Z,11.25
2023-12-09T00:56:34.445Z,10.79
2023-12-09T00:59:04.246Z,10.32
2023-12-09T01:01:34.652Z,11.01
2023-12-09T01:04:05.787Z,10.67
2023-12-09T01:06:34.428Z,10.71
2023-12-09T01:09:02.754Z,10.69
2023-12-09T01:11:31.114Z,10.68
2023-12-09T01:13:59.289Z,11.17
2023-12-09T01:16:27.622Z,10.74
2023-12-09T01:18:56.755Z,10.23
2023-12-09T01:21:26.421Z,10.01
2023-12-09T01:23:54.833Z,10.13
2023-12-09T01:26:23.129Z,9.92
2023-12-09T01:28:51.317Z,10.43
2023-12-09T01:31:19.526Z,10.04
2023-12-09T01:33:48.180Z,10.10
2023-12-09T01:36:16.522Z,10.27
2023-12-09T01:38:46.151Z,10.65
2023-12-09T01:41:14.428Z,10.58
2023-12-09T01:43:43.388Z,10.50
2023-12-09T01:46:13.728Z,10.48
2023-12-09T01:48:42.700Z,10.20
2023-12-09T01:51:11.785Z,10.35
2023-12-09T01:53:40.220Z,10.47
2023-12-09T01:56:13.583Z,10.90
2023-12-09T01:58:42.598Z,10.78
2023-12-09T02:01:11.351Z,11.36
2023-12-09T02:03:48.627Z,11.00
2023-12-09T02:06:16.888Z,11.31
2023-12-09T02:08:45.332Z,11.28
2023-12-09T02:11:23.981Z,11.54
2023-12-09T02:14:00.607Z,11.50
2023-12-09T02:16:37.050Z,11.35
2023-12-09T02:19:09.557Z,11.12
2023-12-09T02:22:00.016Z,11.23
2023-12-09T02:24:30.370Z,11.66
2023-12-09T02:27:05.027Z,11.75
2023-12-09T02:29:38.377Z,11.89
2023-12-09T02:32:09.448Z,11.52
2023-12-09T02:34:41.946Z,11.19
2023-12-09T02:37:12.378Z,11.25
2023-12-09T02:39:42.255Z,11.50
2023-12-09T02:42:11.583Z,11.77
2023-12-09T02:44:43.914Z,11.65
2023-12-09T02:47:15.045Z,11.44
2023-12-09T02:49:44.158Z,11.29
2023-12-09T02:52:13.029Z,11.11
2023-12-09T02:54:50.305Z,10.36
2023-12-09T02:57:18.645Z,9.97
2023-12-09T02:59:46.885Z,10.22
2023-12-09T03:02:15.055Z,10.18
2023-12-09T03:04:43.260Z,10.02
2023-12-09T03:07:11.465Z,10.05
2023-12-09T03:09:39.663Z,10.29
2023-12-09T03:12:09.510Z,9.78
2023-12-09T03:14:37.765Z,10.08
2023-12-09T03:17:06.206Z,9.94
2023-12-09T03:19:34.661Z,10.51
2023-12-09T03:22:04.155Z,10.33
2023-12-09T03:24:32.768Z,10.64
2023-12-09T03:27:01.192Z,10.40
2023-12-09T03:29:30.791Z,10.54
2023-12-09T03:31:59.115Z,10.26
2023-12-09T03:34:27.453Z,10.12
2023-12-09T03:36:55.708Z,10.25
2023-12-09T03:39:23.960Z,10.81
2023-12-09T03:41:52.261Z,10.48
2023-12-09T03:44:20.506Z,10.32
2023-12-09T03:46:50.159Z,10.12
2023-12-09T03:49:18.505Z,10.14
2023-12-09T03:51:48.946Z,10.56
2023-12-09T03:54:17.227Z,10.36
2023-12-09T03:56:45.868Z,10.60
2023-12-09T03:59:14.129Z,10.36
2023-12-09T04:01:50.363Z,10.55
2023-12-09T04:04:19.095Z,10.37
2023-12-09T04:06:47.981Z,10.70
2023-12-09T04:09:17.431Z,10.58
2023-12-09T04:11:45.780Z,10.15
2023-12-09T04:14:14.067Z,11.20
2023-12-09T04:16:45.054Z,10.63
2023-12-09T04:19:14.828Z,10.21
2023-12-09T04:21:43.152Z,10.54
2023-12-09T04:24:11.510Z,10.26
2023-12-09T04:26:40.469Z,10.34
2023-12-09T04:29:08.785Z,10.89
2023-12-09T04:31:37.028Z,10.84
2023-12-09T04:34:05.254Z,11.34
2023-12-09T04:36:35.069Z,10.24
2023-12-09T04:39:04.400Z,10.60
2023-12-09T04:41:32.679Z,11.10
2023-12-09T04:44:00.950Z,11.04
2023-12-09T04:46:30.649Z,10.90
2023-12-09T04:48:59.084Z,11.28
2023-12-09T04:51:28.188Z,10.77
2023-12-09T04:53:58.383Z,11.01
2023-12-09T04:56:26.676Z,10.75
2023-12-09T04:58:54.883Z,10.61
2023-12-09T05:01:24.594Z,11.17
2023-12-09T05:03:52.893Z,11.08
2023-12-09T05:06:21.379Z,11.14
2023-12-09T05:08:49.640Z,11.09
2023-12-09T05:11:19.847Z,10.45
2023-12-09T05:13:48.093Z,10.57
2023-12-09T05:16:16.770Z,10.94
2023-12-09T05:18:45.232Z,10.92
2023-12-09T05:21:15.116Z,11.50
2023-12-09T05:23:43.396Z,11.24
2023-12-09T05:26:11.621Z,11.35
2023-12-09T05:28:41.277Z,10.66
2023-12-09T05:31:09.625Z,11.11
2023-12-09T05:33:37.910Z,11.15
2023-12-09T05:36:06.888Z,11.13
2023-12-09T05:38:35.257Z,11.11
2023-12-09T05:41:03.609Z,11.14
2023-12-09T05:43:31.756Z,11.06
2023-12-09T05:46:03.694Z,11.10
2023-12-09T05:48:35.519Z,11.04
2023-12-09T05:51:04.261Z,10.86
2023-12-09T05:53:32.502Z,10.82
2023-12-09T05:56:01.852Z,10.55
2023-12-09T05:58:30.545Z,10.62
2023-12-09T06:01:01.563Z,10.93
2023-12-09T06:03:29.934Z,10.32
2023-12-09T06:05:59.030Z,10.22
2023-12-09T06:08:27.358Z,10.74
2023-12-09T06:10:56.135Z,10.71
2023-12-09T06:13:24.416Z,11.24
2023-12-09T06:15:52.624Z,11.51
2023-12-09T06:18:22.432Z,11.06
2023-12-09T06:20:50.659Z,11.41
2023-12-09T06:23:18.869Z,11.23
2023-12-09T06:25:47.329Z,10.96
2023-12-09T06:28:15.553Z,11.35
2023-12-09T06:30:43.782Z,11.18
2023-12-09T06:33:12.141Z,11.40
2023-12-09T06:35:41.868Z,11.48
2023-12-09T06:38:10.191Z,11.68
2023-12-09T06:40:38.390Z,10.79
2023-12-09T06:43:06.653Z,11.06
2023-12-09T06:45:34.909Z,10.50
2023-12-09T06:48:03.408Z,10.85
2023-12-09T06:50:31.731Z,11.38
2023-12-09T06:53:02.106Z,11.32
2023-12-09T06:55:30.335Z,12.02
2023-12-09T06:58:00.616Z,11.44
2023-12-09T07:00:28.878Z,11.81
2023-12-09T07:02:59.899Z,11.38
2023-12-09T07:05:29.712Z,11.87
2023-12-09T07:07:58.225Z,11.68
2023-12-09T07:10:27.780Z,11.36
2023-12-09T07:12:56.544Z,11.50
2023-12-09T07:15:24.781Z,11.72
2023-12-09T07:17:53.278Z,11.96
2023-12-09T07:20:22.187Z,12.08
2023-12-09T07:22:52.098Z,11.86
2023-12-09T07:25:21.310Z,12.11
2023-12-09T07:27:51.865Z,12.48
2023-12-09T07:30:22.260Z,12.54
2023-12-09T07:32:50.658Z,12.10
2023-12-09T07:35:19.576Z,12.24
2023-12-09T07:37:48.457Z,12.06
2023-12-09T07:40:17.271Z,12.44
2023-12-09T07:42:45.700Z,12.25
2023-12-09T07:45:15.419Z,12.59
2023-12-09T07:47:43.708Z,12.68
2023-12-09T07:50:14.248Z,12.72
2023-12-09T07:52:42.563Z,12.25
2023-12-09T07:55:11.584Z,12.50
2023-12-09T07:57:40.676Z,12.50
2023-12-09T08:00:10.602Z,12.57
2023-12-09T08:02:41.289Z,12.76
2023-12-09T08:05:10.793Z,12.69
2023-12-09T08:07:40.188Z,12.68
2023-12-09T08:10:10.457Z,12.46
2023-12-09T08:12:38.681Z,11.82
2023-12-09T08:15:08.009Z,12.18
2023-12-09T08:17:36.268Z,12.38
2023-12-09T08:20:09.991Z,12.77
2023-12-09T08:22:40.041Z,13.02
2023-12-09T08:25:10.225Z,12.83
2023-12-09T08:27:39.608Z,12.99
2023-12-09T08:30:11.698Z,12.84
2023-12-09T08:32:42.424Z,12.43
2023-12-09T08:35:14.059Z,12.63
2023-12-09T08:37:41.708Z,13.14
2023-12-09T08:40:13.394Z,13.01
2023-12-09T08:42:42.348Z,12.45
2023-12-09T08:45:12.863Z,12.33
2023-12-09T08:47:45.041Z,12.64
2023-12-09T08:52:47.985Z,12.77
2023-12-09T08:55:16.817Z,13.10
2023-12-09T08:57:45.045Z,12.95
2023-12-09T09:00:17.231Z,13.17
2023-12-09T09:02:45.551Z,13.24
2023-12-09T09:05:15.578Z,12.70
2023-12-09T09:07:46.462Z,13.05
2023-12-09T09:10:15.152Z,14.02
2023-12-09T09:12:44.939Z,14.11
2023-12-09T09:15:14.598Z,13.59
2023-12-09T09:17:42.832Z,14.24
2023-12-09T09:20:12.236Z,13.60
2023-12-09T09:22:46.263Z,14.33
2023-12-09T09:25:16.508Z,13.31
2023-12-09T09:27:45.236Z,13.37
2023-12-09T09:30:15.101Z,13.44
2023-12-09T09:32:43.445Z,13.31
2023-12-09T09:35:11.828Z,13.57
2023-12-09T09:37:41.456Z,13.94
2023-12-09T09:40:13.262Z,14.90
2023-12-09T09:42:46.109Z,13.98
2023-12-09T09:45:27.586Z,14.32
2023-12-09T09:47:59.392Z,14.11
2023-12-09T09:50:28.918Z,13.83
2023-12-09T09:52:59.990Z,13.92
2023-12-09T09:55:29.351Z,13.27
2023-12-09T09:57:57.987Z,14.64
2023-12-09T10:00:29.830Z,14.23
2023-12-09T10:03:01.045Z,14.34
2023-12-09T10:05:30.339Z,12.88
2023-12-09T10:08:00.529Z,12.83
2023-12-09T10:10:30.662Z,13.69
2023-12-09T10:12:59.808Z,13.14
2023-12-09T10:15:28.041Z,13.64
2023-12-09T10:18:03.357Z,12.87
2023-12-09T10:20:32.590Z,12.42
2023-12-09T10:23:02.974Z,12.66
2023-12-09T10:25:31.334Z,12.70
2023-12-09T10:27:59.886Z,12.59
2023-12-09T10:30:29.438Z,12.92
2023-12-09T10:33:00.275Z,13.37
2023-12-09T10:35:31.249Z,13.51
2023-12-09T10:38:06.290Z,12.78
2023-12-09T10:40:35.107Z,12.49
2023-12-09T10:43:05.029Z,12.60
2023-12-09T10:45:33.859Z,12.89
2023-12-09T10:48:02.330Z,12.46
2023-12-09T10:50:32.680Z,12.68
2023-12-09T10:53:00.957Z,11.91
2023-12-09T10:55:31.154Z,12.54
2023-12-09T10:58:00.676Z,12.61
2023-12-09T11:00:31.389Z,12.54
2023-12-09T11:03:01.298Z,12.74
2023-12-09T11:05:31.293Z,12.35
2023-12-09T11:08:01.287Z,12.08
2023-12-09T11:10:31.067Z,13.34
2023-12-09T11:12:59.444Z,13.26
2023-12-09T11:15:32.827Z,13.21
2023-12-09T11:18:12.384Z,12.51
2023-12-09T11:20:43.231Z,12.60
2023-12-09T11:23:12.980Z,12.44
2023-12-09T11:25:44.324Z,13.10
2023-12-09T11:28:14.163Z,12.77
2023-12-09T11:30:45.691Z,13.17
2023-12-09T11:33:14.474Z,12.99
2023-12-09T11:35:47.103Z,12.17
2023-12-09T11:38:16.305Z,12.21
2023-12-09T11:40:47.852Z,12.26
2023-12-09T11:43:18.289Z,12.65
2023-12-09T11:45:45.567Z,12.11
2023-12-09T11:48:34.471Z,12.73
2023-12-09T11:51:05.571Z,12.73
2023-12-09T11:53:33.796Z,12.40
2023-12-09T11:56:03.398Z,12.79
2023-12-09T11:58:31.771Z,12.64
2023-12-09T12:01:00.188Z,12.28
2023-12-09T12:03:28.544Z,11.94
2023-12-09T12:05:56.892Z,12.56
2023-12-09T12:08:31.373Z,12.58
2023-12-09T12:10:59.712Z,13.12
2023-12-09T12:13:29.437Z,14.16
2023-12-09T12:16:05.446Z,14.44
2023-12-09T12:18:33.968Z,13.94
2023-12-09T12:21:02.627Z,14.07
2023-12-09T12:23:43.411Z,15.61
2023-12-09T12:26:14.197Z,15.06
2023-12-09T12:28:44.151Z,14.49
2023-12-09T12:31:22.149Z,14.40
2023-12-09T12:33:50.862Z,14.22
2023-12-09T12:36:20.348Z,14.40
2023-12-09T12:38:51.145Z,14.27
2023-12-09T12:41:19.510Z,14.66
2023-12-09T12:43:49.437Z,15.00
2023-12-09T12:46:21.686Z,14.68
2023-12-09T12:48:50.205Z,15.44
2023-12-09T12:51:18.712Z,14.42
2023-12-09T12:53:47.949Z,14.50
2023-12-09T12:56:16.546Z,14.31
2023-12-09T12:58:44.929Z,14.21
2023-12-09T13:01:14.874Z,14.56
2023-12-09T13:03:43.543Z,14.64
2023-12-09T13:06:12.451Z,14.89
2023-12-09T13:08:41.176Z,15.26
2023-12-09T13:11:13.412Z,14.93
2023-12-09T13:13:41.727Z,14.11
2023-12-09T13:16:30.363Z,13.35
2023-12-09T13:19:03.658Z,14.01
2023-12-09T13:21:32.010Z,13.74
2023-12-09T13:24:00.352Z,14.05
2023-12-09T13:26:28.878Z,14.23
2023-12-09T13:28:58.434Z,14.02
2023-12-09T13:31:26.847Z,14.05
2023-12-09T13:33:58.697Z,13.96
2023-12-09T13:36:27.380Z,14.32
2023-12-09T13:38:55.901Z,14.10
2023-12-09T13:41:24.390Z,14.01
2023-12-09T13:43:52.857Z,14.48
2023-12-09T13:46:21.171Z,14.26
2023-12-09T13:48:49.625Z,13.85
2023-12-09T13:51:19.421Z,13.91
2023-12-09T13:53:47.873Z,12.90
2023-12-09T13:56:16.560Z,13.94
2023-12-09T13:58:44.901Z,14.25
2023-12-09T14:01:13.856Z,13.76
2023-12-09T14:03:42.404Z,13.86
2023-12-09T14:06:12.473Z,13.44
2023-12-09T14:08:49.117Z,13.92
2023-12-09T14:11:19.496Z,14.05
2023-12-09T14:13:48.277Z,13.97
2023-12-09T14:16:20.188Z,13.90
2023-12-09T14:18:51.758Z,13.61
2023-12-09T14:21:25.393Z,13.25
2023-12-09T14:23:55.805Z,13.52
2023-12-09T14:26:29.528Z,13.75
2023-12-09T14:29:07.622Z,13.99
2023-12-09T14:31:36.026Z,13.96
2023-12-09T14:34:10.447Z,13.35
2023-12-09T14:36:41.184Z,13.37
2023-12-09T14:39:11.738Z,13.20
2023-12-09T14:41:43.198Z,12.70
2023-12-09T14:44:11.615Z,12.29
2023-12-09T14:46:40.609Z,12.77
2023-12-09T14:49:15.097Z,12.56
2023-12-09T14:51:44.567Z,11.85
2023-12-09T14:54:20.431Z,11.32
2023-12-09T14:56:48.979Z,11.58
2023-12-09T14:59:18.496Z,11.61
2023-12-09T15:01:55.459Z,11.28
2023-12-09T15:04:23.852Z,11.16
2023-12-09T15:06:52.573Z,11.05
2023-12-09T15:09:23.475Z,11.12
2023-12-09T15:11:53.430Z,10.70
2023-12-09T15:14:36.411Z,11.07
2023-12-09T15:17:05.082Z,10.78
2023-12-09T15:19:34.169Z,10.86
2023-12-09T15:22:05.234Z,10.40
2023-12-09T15:24:35.096Z,10.36
2023-12-09T15:27:03.797Z,10.48
2023-12-09T15:29:34.193Z,10.70
2023-12-09T15:32:02.489Z,11.35
2023-12-09T15:34:31.973Z,10.98
2023-12-09T15:37:00.971Z,10.72
2023-12-09T15:39:30.312Z,11.09
2023-12-09T15:42:00.536Z,11.15
2023-12-09T15:44:31.488Z,10.95
2023-12-09T15:47:00.350Z,11.21
2023-12-09T15:49:29.185Z,10.91
2023-12-09T15:51:58.537Z,11.48
2023-12-09T15:54:27.500Z,12.00
2023-12-09T15:57:03.431Z,11.97
2023-12-09T15:59:32.486Z,11.32
2023-12-09T16:02:01.439Z,10.85
2023-12-09T16:04:30.493Z,11.12
2023-12-09T16:06:59.441Z,11.09
2023-12-09T16:09:28.423Z,11.39
2023-12-09T16:11:57.364Z,12.03
2023-12-09T16:14:28.553Z,12.28
2023-12-09T16:16:57.661Z,12.38
2023-12-09T16:19:26.731Z,12.45
2023-12-09T16:21:55.748Z,15.73
2023-12-09T16:24:28.693Z,15.73
2023-12-09T16:26:57.927Z,15.73
2023-12-09T16:29:28.445Z,15.73
2023-12-09T16:31:57.994Z,15.73
2023-12-09T16:34:26.978Z,15.73
2023-12-09T16:36:56.470Z,15.73
2023-12-09T16:39:25.501Z,15.73
2023-12-09T16:41:54.508Z,15.73
2023-12-09T16:44:23.302Z,15.73
2023-12-09T16:46:53.521Z,15.73
2023-12-09T16:49:22.282Z,15.73
2023-12-09T16:51:50.819Z,15.73
2023-12-09T16:54:22.842Z,15.52
2023-12-09T16:56:52.424Z,15.65
2023-12-09T16:59:20.824Z,15.03
2023-12-09T17:01:49.217Z,14.69
2023-12-09T17:04:19.301Z,14.34
2023-12-09T17:06:53.059Z,14.13
2023-12-09T17:09:22.508Z,14.38
2023-12-09T17:11:53.016Z,13.66
2023-12-09T17:14:21.887Z,13.82
2023-12-09T17:16:50.268Z,13.49
2023-12-09T17:19:20.022Z,13.20
2023-12-09T17:21:48.467Z,14.04
2023-12-09T17:24:16.907Z,13.38
2023-12-09T17:26:45.586Z,14.27
2023-12-09T17:29:13.996Z,14.46
2023-12-09T17:31:44.327Z,13.96
2023-12-09T17:34:14.724Z,13.61
2023-12-09T17:36:44.677Z,14.14
2023-12-09T17:39:13.893Z,14.53
2023-12-09T17:41:42.356Z,14.31
2023-12-09T17:44:11.467Z,14.64
2023-12-09T17:46:39.824Z,14.30
2023-12-09T17:49:08.326Z,13.85
2023-12-09T17:51:36.794Z,13.88
2023-12-09T17:54:07.435Z,14.03
2023-12-09T17:56:36.166Z,13.96
2023-12-09T17:59:06.250Z,13.72
2023-12-09T18:01:35.117Z,13.63
2023-12-09T18:04:03.576Z,13.53
2023-12-09T18:06:32.325Z,13.80
2023-12-09T18:09:00.732Z,14.16
2023-12-09T18:11:30.498Z,14.23
2023-12-09T18:13:58.940Z,13.49
2023-12-09T18:16:27.420Z,13.21
2023-12-09T18:18:56.244Z,13.01
2023-12-09T18:21:25.513Z,12.51
2023-12-09T18:23:54.342Z,13.06
2023-12-09T18:26:22.812Z,13.57
2023-12-09T18:28:52.570Z,13.59
2023-12-09T18:31:22.477Z,12.94
2023-12-09T18:33:50.987Z,13.66
2023-12-09T18:36:19.536Z,13.90
2023-12-09T18:38:48.931Z,13.72
2023-12-09T18:41:17.321Z,13.40
2023-12-09T18:43:45.864Z,13.99
2023-12-09T18:46:15.600Z,14.40
2023-12-09T18:48:44.062Z,13.75
2023-12-09T18:51:12.851Z,13.61
2023-12-09T18:53:41.596Z,13.98
2023-12-09T18:56:11.194Z,14.31
2023-12-09T18:58:39.861Z,14.82
2023-12-09T19:01:11.311Z,14.69
2023-12-09T19:03:41.820Z,14.53
2023-12-09T19:06:11.230Z,14.46
2023-12-09T19:08:41.472Z,14.33
2023-12-09T19:11:10.608Z,14.56
2023-12-09T19:13:39.326Z,14.38
2023-12-09T19:16:08.844Z,14.40
2023-12-09T19:18:37.619Z,13.33
2023-12-09T19:21:08.471Z,13.04
2023-12-09T19:23:37.068Z,13.56
2023-12-09T19:26:05.965Z,12.41
2023-12-09T19:28:34.908Z,13.89
2023-12-09T19:31:03.433Z,13.94
2023-12-09T19:33:31.846Z,14.02
2023-12-09T19:36:00.696Z,14.43
2023-12-09T19:38:30.395Z,14.73
2023-12-09T19:40:59.085Z,13.57
2023-12-09T19:43:27.647Z,13.66
2023-12-09T19:45:56.067Z,14.13
2023-12-09T19:48:24.716Z,14.31
2023-12-09T19:50:53.195Z,12.97
2023-12-09T19:53:21.678Z,12.29
2023-12-09T19:55:51.573Z,13.36
2023-12-09T19:58:19.985Z,13.76
2023-12-09T20:00:48.433Z,13.99
2023-12-09T20:03:16.991Z,14.55
2023-12-09T20:05:45.526Z,14.33
2023-12-09T20:08:13.967Z,12.54
2023-12-09T20:10:43.130Z,13.86
2023-12-09T20:13:13.153Z,14.74
2023-12-09T20:15:41.552Z,13.88
2023-12-09T20:18:10.885Z,13.31
2023-12-09T20:20:39.274Z,13.31
2023-12-09T20:23:07.851Z,13.19
2023-12-09T20:25:35.586Z,13.20
2023-12-09T20:28:05.812Z,14.06
2023-12-09T20:30:36.792Z,13.23
2023-12-09T20:33:05.667Z,14.00
2023-12-09T20:35:34.173Z,14.04
2023-12-09T20:38:04.413Z,13.46
2023-12-09T20:40:32.822Z,13.43
2023-12-09T20:43:01.161Z,13.72
2023-12-09T20:45:29.680Z,14.45
2023-12-09T20:47:59.613Z,13.48
2023-12-09T20:50:28.115Z,13.71
2023-12-09T20:52:56.924Z,13.01
2023-12-09T20:55:31.178Z,12.90
2023-12-09T20:57:59.646Z,12.96
2023-12-09T21:00:28.150Z,14.56
2023-12-09T21:03:01.984Z,13.33
2023-12-09T21:05:30.415Z,13.62
2023-12-09T21:07:58.857Z,13.86
2023-12-09T21:10:27.460Z,13.48
2023-12-09T21:12:57.720Z,14.03
2023-12-09T21:15:27.335Z,13.87
2023-12-09T21:17:55.720Z,13.67
2023-12-09T21:20:25.624Z,14.21
2023-12-09T21:22:54.048Z,14.49
2023-12-09T21:25:22.355Z,14.45
2023-12-09T21:27:51.109Z,14.12
2023-12-09T21:30:19.658Z,14.41
2023-12-09T21:32:48.112Z,14.43
2023-12-09T21:35:16.620Z,14.22
2023-12-09T21:37:46.359Z,14.51
2023-12-09T21:40:15.547Z,14.78
2023-12-09T21:42:44.291Z,14.19
2023-12-09T21:45:15.487Z,14.88
2023-12-09T21:47:44.093Z,14.70
2023-12-09T21:50:13.780Z,14.99
2023-12-09T21:52:42.544Z,15.39
2023-12-09T21:55:12.517Z,15.32
2023-12-09T21:57:40.992Z,14.86
2023-12-09T22:00:10.908Z,15.13
2023-12-09T22:02:39.249Z,14.58
2023-12-09T22:05:09.005Z,14.38
2023-12-09T22:07:39.481Z,15.49
2023-12-09T22:10:09.001Z,15.03
2023-12-09T22:12:41.274Z,14.90
2023-12-09T22:15:10.700Z,14.64
2023-12-09T22:17:40.036Z,14.14
2023-12-09T22:20:10.831Z,15.22
2023-12-09T22:22:48.461Z,14.53
2023-12-09T22:25:22.261Z,14.54
2023-12-09T22:27:52.094Z,15.20
2023-12-09T22:30:20.603Z,14.59
2023-12-09T22:32:49.539Z,14.39
2023-12-09T22:35:17.876Z,15.46
2023-12-09T22:37:46.182Z,14.91
2023-12-09T22:40:14.824Z,14.79
2023-12-09T22:42:43.459Z,15.20
2023-12-09T22:45:13.635Z,15.81
2023-12-09T22:47:42.100Z,15.11
2023-12-09T22:50:11.401Z,15.43
2023-12-09T22:52:40.211Z,15.70
2023-12-09T22:55:09.830Z,15.50
2023-12-09T22:57:38.142Z,15.70
2023-12-09T23:00:11.303Z,14.98
2023-12-09T23:02:41.009Z,14.98
2023-12-09T23:05:09.865Z,15.54
2023-12-09T23:07:38.261Z,15.57
2023-12-09T23:10:07.865Z,16.26
2023-12-09T23:12:44.199Z,15.73
2023-12-09T23:15:12.966Z,14.68
2023-12-09T23:17:42.743Z,14.64
2023-12-09T23:20:11.913Z,14.79
2023-12-09T23:22:40.214Z,14.94
2023-12-09T23:25:09.581Z,14.02
2023-12-09T23:27:37.972Z,15.36
2023-12-09T23:30:09.126Z,15.36
2023-12-09T23:32:37.663Z,15.01
2023-12-09T23:35:08.198Z,14.80
2023-12-09T23:37:36.475Z,15.38
2023-12-09T23:40:05.812Z,14.85
2023-12-09T23:42:34.585Z,14.99
2023-12-09T23:45:03.165Z,14.63
2023-12-09T23:47:32.309Z,14.68
2023-12-09T23:50:00.646Z,14.81
2023-12-09T23:52:30.600Z,14.84
2023-12-09T23:54:59.565Z,14.35
2023-12-09T23:57:27.955Z,14.52
2023-12-09T23:59:57.311Z,14.48
